createdAt,value
2023-04-15T00:01:03.180Z,5.1
2023-04-15T00:06:41.231Z,5.2
2023-04-15T00:12:31.762Z,5.1
2023-04-15T00:18:08.932Z,5.2
2023-04-15T00:24:00.491Z,5.3
2023-04-15T00:29:51.630Z,5.3
2023-04-15T00:35:43.771Z,5.3
2023-04-15T00:41:34.991Z,5.3
2023-04-15T00:47:11.360Z,5.3
2023-04-15T00:53:04.236Z,5.3
2023-04-15T00:58:55.239Z,5.2
2023-04-15T01:04:48.162Z,5.1
2023-04-15T01:10:24.984Z,4.9
2023-04-15T01:16:16.186Z,4.9
2023-04-15T01:22:08.264Z,4.8
2023-04-15T01:28:00.028Z,4.6
2023-04-15T01:33:52.076Z,4.5
2023-04-15T01:39:42.937Z,4.4
2023-04-15T01:45:35.277Z,4.2
2023-04-15T01:51:26.741Z,4.1
2023-04-15T01:57:17.809Z,3.9
2023-04-15T02:02:55.354Z,3.8
2023-04-15T02:08:31.657Z,3.6
2023-04-15T02:14:22.689Z,3.6
2023-04-15T02:20:14.986Z,3.4
2023-04-15T02:25:37.064Z,3.3
2023-04-15T02:31:29.395Z,3.2
2023-04-15T02:37:21.667Z,3.1
2023-04-15T02:43:13.135Z,2.9
2023-04-15T02:49:04.878Z,2.6
2023-04-15T02:54:56.884Z,2.4
2023-04-15T03:00:48.227Z,2.3
2023-04-15T03:06:41.099Z,2
2023-04-15T03:12:32.788Z,1.8
2023-04-15T03:18:24.134Z,1.7
2023-04-15T03:24:15.252Z,1.5
2023-04-15T03:30:07.543Z,1.4
2023-04-15T03:35:43.326Z,1.3
2023-04-15T03:41:20.007Z,1.1
2023-04-15T03:47:13.867Z,0.9
2023-04-15T03:53:18.991Z,0.8
2023-04-15T03:59:09.497Z,0.8
2023-04-15T04:05:03.469Z,0.7
2023-04-15T04:10:54.721Z,0.8
2023-04-15T04:16:45.804Z,0.9
2023-04-15T04:22:22.460Z,1.1
2023-04-15T04:27:58.312Z,1.3
2023-04-15T04:33:50.323Z,1.5
2023-04-15T04:39:42.471Z,1.9
2023-04-15T04:45:34.040Z,2.6
2023-04-15T04:51:25.371Z,4.2
2023-04-15T04:57:17.327Z,6.4
2023-04-15T05:03:09.779Z,8.9
2023-04-15T05:08:45.723Z,11.3
2023-04-15T05:14:39.922Z,13.6
2023-04-15T05:20:32.376Z,16.1
2023-04-15T05:26:25.059Z,18.5
2023-04-15T05:32:18.204Z,21.3
2023-04-15T05:38:09.601Z,24.2
2023-04-15T05:44:01.525Z,27.2
2023-04-15T05:49:54.413Z,30.5
2023-04-15T05:55:48.186Z,34.1
2023-04-15T06:01:39.645Z,37.8
2023-04-15T06:07:02.143Z,41.2
2023-04-15T06:12:38.239Z,44.5
2023-04-15T06:18:14.904Z,47.7
2023-04-15T06:24:07.429Z,46.7
2023-04-15T06:29:28.315Z,35.8
2023-04-15T06:35:20.746Z,35
2023-04-15T06:40:58.591Z,37.8
2023-04-15T06:46:35.477Z,38.8
2023-04-15T06:52:26.723Z,39.5
2023-04-15T06:58:18.579Z,41.6
2023-04-15T07:03:54.367Z,43.2
2023-04-15T07:09:44.806Z,41.9
2023-04-15T07:15:36.812Z,42.6
2023-04-15T07:21:30.613Z,41.9
2023-04-15T07:27:22.110Z,43.4
2023-04-15T07:33:15.375Z,44.5
2023-04-15T07:39:05.576Z,44.1
2023-04-15T07:44:58.770Z,44.4
2023-04-15T07:50:53.211Z,39.9
2023-04-15T07:56:44.383Z,42.8
2023-04-15T08:02:36.885Z,55.4
2023-04-15T08:08:16.316Z,55.6
2023-04-15T08:13:52.193Z,54.1
2023-04-15T08:19:43.157Z,53.5
2023-04-15T08:25:42.025Z,54.5
2023-04-15T08:31:33.902Z,54.9
2023-04-15T08:37:10.417Z,55.8
2023-04-15T08:42:47.068Z,56.7
2023-04-15T08:54:16.022Z,57.5
2023-04-15T09:00:07.634Z,58.3
2023-04-15T09:05:59.830Z,58.2
2023-04-15T09:11:53.958Z,55.6
2023-04-15T09:17:45.969Z,57.6
2023-04-15T09:23:36.222Z,59.1
2023-04-15T09:29:30.120Z,59.1
2023-04-15T09:35:22.552Z,55.3
2023-04-15T09:41:28.177Z,54.3
2023-04-15T09:47:04.946Z,54.2
2023-04-15T09:52:54.833Z,53.1
2023-04-15T09:58:34.033Z,51.6
2023-04-15T10:04:27.212Z,50
2023-04-15T10:10:03.568Z,52.5
2023-04-15T10:15:39.104Z,57.7
2023-04-15T10:20:59.746Z,55.4
2023-04-15T10:26:22.820Z,49.6
2023-04-15T10:32:14.218Z,54.6
2023-04-15T10:38:05.036Z,64.6
2023-04-15T10:43:41.207Z,59.6
2023-04-15T10:49:17.611Z,57.9
2023-04-15T10:55:08.077Z,59.6
2023-04-15T11:06:37.503Z,59.3
2023-04-15T11:12:29.027Z,58
2023-04-15T11:18:21.372Z,60.3
2023-04-15T11:24:26.678Z,59.9
2023-04-15T11:35:55.164Z,60.1
2023-04-15T11:41:46.446Z,59.4
2023-04-15T11:47:50.880Z,58.9
2023-04-15T11:58:17.141Z,58.8
2023-04-15T12:04:00.982Z,58.9
2023-04-15T12:09:39.421Z,59.3
2023-04-15T12:15:30.421Z,59.1
2023-04-15T12:21:48.873Z,56
2023-04-15T12:27:39.846Z,59.1
2023-04-15T12:33:18.168Z,59.9
2023-04-15T12:38:54.229Z,59.8
2023-04-15T12:44:31.882Z,59.9
2023-04-15T12:50:23.120Z,60.6
2023-04-15T12:56:14.439Z,63.6
2023-04-15T13:01:36.786Z,68
2023-04-15T13:07:30.477Z,58.8
2023-04-15T13:13:27.694Z,51.8
2023-04-15T13:19:19.112Z,55.3
2023-04-15T13:25:10.162Z,59.2
2023-04-15T13:31:02.979Z,60.9
2023-04-15T13:36:54.756Z,61.8
2023-04-15T13:42:47.836Z,61.8
2023-04-15T13:48:39.365Z,62.1
2023-04-15T13:54:37.320Z,59.7
2023-04-15T14:00:54.156Z,59.1
2023-04-15T14:06:31.436Z,58.8
2023-04-15T14:12:26.205Z,57.8
2023-04-15T14:18:18.833Z,56.6
2023-04-15T14:24:13.608Z,55.1
2023-04-15T14:30:18.512Z,54
2023-04-15T14:36:10.450Z,52.8
2023-04-15T14:42:01.724Z,51.1
2023-04-15T14:47:53.527Z,49.7
2023-04-15T14:53:44.955Z,47.8
2023-04-15T14:59:36.730Z,45.5
2023-04-15T15:05:46.952Z,42.8
2023-04-15T15:12:00.321Z,40.4
2023-04-15T15:18:04.239Z,38.8
2023-04-15T15:23:55.783Z,37.6
2023-04-15T15:29:47.336Z,36.5
2023-04-15T15:35:39.596Z,35.6
2023-04-15T15:41:31.967Z,34.3
2023-04-15T15:47:09.329Z,33.1
2023-04-15T15:52:46.501Z,32.1
2023-04-15T15:58:22.611Z,31.1
2023-04-15T16:04:53.551Z,29.9
2023-04-15T16:10:48.474Z,28.8
2023-04-15T16:16:40.596Z,27.8
2023-04-15T16:22:49.470Z,26.7
2023-04-15T16:29:00.999Z,25.8
2023-04-15T16:34:52.329Z,24.9
2023-04-15T16:40:43.040Z,24.1
2023-04-15T16:46:36.300Z,23.3
2023-04-15T16:52:28.520Z,22.5
2023-04-15T16:58:51.773Z,21.8
2023-04-15T17:04:46.556Z,20.9
2023-04-15T17:10:37.656Z,20.1
2023-04-15T17:16:29.779Z,19.4
2023-04-15T17:27:41.625Z,18
2023-04-15T17:34:16.290Z,17.3
2023-04-15T17:40:26.242Z,16.5
2023-04-15T17:46:17.407Z,15.9
2023-04-15T17:52:10.289Z,15.6
2023-04-15T17:58:02.697Z,15.3
2023-04-15T18:03:56.179Z,15
2023-04-15T18:09:48.765Z,14.8
2023-04-15T18:15:58.229Z,14.6
2023-04-15T18:21:50.393Z,14.4
2023-04-15T18:27:42.450Z,14.1
2023-04-15T18:33:34.920Z,14
2023-04-15T18:39:14.013Z,13.8
2023-04-15T18:44:51.025Z,13.7
2023-04-15T18:50:43.396Z,13.5
2023-04-15T18:56:35.572Z,13.3
2023-04-15T19:03:24.560Z,13.1
2023-04-15T19:09:17.068Z,12.9
2023-04-15T19:15:08.521Z,12.8
2023-04-15T19:21:01.037Z,12.6
2023-04-15T19:26:53.110Z,12.4
2023-04-15T19:32:47.179Z,12.2
2023-04-15T19:38:23.545Z,12.1
2023-04-15T19:43:59.873Z,11.9
2023-04-15T19:49:36.148Z,11.8
2023-04-15T19:55:12.386Z,11.5
2023-04-15T20:01:03.427Z,11.3
2023-04-15T20:06:56.852Z,11.1
2023-04-15T20:13:41.810Z,10.9
2023-04-15T20:19:33.828Z,10.7
2023-04-15T20:25:25.042Z,10.6
2023-04-15T20:31:16.074Z,10.4
2023-04-15T20:37:07.824Z,10.3
2023-04-15T20:42:59.765Z,10.3
2023-04-15T20:49:03.440Z,10.2
2023-04-15T20:54:55.012Z,10.1
2023-04-15T21:00:48.819Z,10.1
2023-04-15T21:06:42.241Z,10
2023-04-15T21:12:54.473Z,9.9
2023-04-15T21:18:45.819Z,9.8
2023-04-15T21:24:24.458Z,9.9
2023-04-15T21:30:15.757Z,9.9
2023-04-15T21:36:06.710Z,9.8
2023-04-15T21:41:43.074Z,9.8
2023-04-15T21:48:23.417Z,9.8
2023-04-15T21:54:14.501Z,9.8
2023-04-15T22:00:05.437Z,9.8
2023-04-15T22:06:01.678Z,9.8
2023-04-15T22:12:05.136Z,9.8
2023-04-15T22:17:56.693Z,9.8
2023-04-15T22:24:31.988Z,9.7
2023-04-15T22:30:30.351Z,9.6
2023-04-15T22:36:22.101Z,9.5
2023-04-15T22:42:14.566Z,9.4
2023-04-15T22:47:51.163Z,9.3
2023-04-15T22:53:58.364Z,9.2
2023-04-15T22:59:34.936Z,9.1
2023-04-15T23:06:02.046Z,8.9
2023-04-15T23:11:37.868Z,8.8
2023-04-15T23:17:29.749Z,8.6
2023-04-15T23:23:21.001Z,8.4
2023-04-15T23:29:12.144Z,8.2
2023-04-15T23:35:04.681Z,8
2023-04-15T23:40:56.395Z,7.8
2023-04-15T23:46:31.918Z,7.7
2023-04-15T23:52:26.612Z,7.4
2023-04-15T23:58:18.255Z,7.3
